Time;durP1;ratioP1;P1;durP2;ratioP2;P2;SDS_P1;SDS_P2;PMS_P1;PMS_P2;Temp;Humidity;BMP_temperature;BMP_pressure;BME280_temperature;BME280_humidity;BME280_pressure;Samples;Min_cycle;Max_cycle;Signal;HPM_P1;HPM_P2
2023/01/10 00:01:21;;;;;;;10.50;4.00;;;;;;;5.13;95.22;101173.41;4995907;28;20534;-66
2023/01/10 00:03:46;;;;;;;13.63;3.40;;;;;;;5.11;95.80;101182.94;4995823;28;20049;-66
2023/01/10 00:06:12;;;;;;;13.38;3.33;;;;;;;5.10;95.28;101189.03;4995870;28;20026;-65
2023/01/10 00:08:37;;;;;;;11.70;3.67;;;;;;;5.09;95.55;101200.31;4995566;28;20081;-65
2023/01/10 00:13:22;;;;;;;10.93;3.38;;;;;;;5.11;95.63;101197.78;4995949;28;20030;-65
2023/01/10 00:13:52;;;;;;;11.75;3.33;;;;;;;5.09;95.60;101192.44;4995685;28;20069;-66
2023/01/10 00:16:17;;;;;;;14.27;3.22;;;;;;;5.09;95.67;101208.16;4995668;28;20038;-65
2023/01/10 00:18:43;;;;;;;13.07;3.25;;;;;;;5.09;95.79;101209.91;4995647;28;20030;-66
2023/01/10 00:21:08;;;;;;;13.70;3.40;;;;;;;5.10;96.36;101209.97;4995527;28;20018;-66
2023/01/10 00:23:34;;;;;;;11.82;3.40;;;;;;;5.12;96.00;101215.25;4995589;28;20054;-65
2023/01/10 00:26:00;;;;;;;9.95;3.50;;;;;;;5.11;95.71;101219.59;4995637;28;20034;-65
2023/01/10 00:28:25;;;;;;;12.82;3.45;;;;;;;5.09;96.08;101218.66;4995392;28;20065;-65
2023/01/10 00:30:53;;;;;;;11.52;3.40;;;;;;;5.11;95.61;101232.72;4995194;28;20381;-65
2023/01/10 00:33:19;;;;;;;16.15;3.80;;;;;;;5.09;95.47;101233.47;4995251;28;20064;-65
2023/01/10 00:35:46;;;;;;;11.52;3.47;;;;;;;5.08;95.47;101239.53;4995081;28;20092;-66
2023/01/10 00:38:12;;;;;;;14.73;3.13;;;;;;;5.05;95.48;101252.50;4977702;28;20108;-65
2023/01/10 00:40:37;;;;;;;12.20;3.30;;;;;;;5.03;96.12;101249.84;4995201;28;20121;-66
2023/01/10 00:45:46;;;;;;;13.05;3.85;;;;;;;5.03;95.83;101248.13;4995364;28;20049;-65
2023/01/10 00:48:15;;;;;;;16.25;3.40;;;;;;;4.98;95.63;101261.88;4994925;28;20022;-65
2023/01/10 00:50:41;;;;;;;12.73;3.70;;;;;;;4.94;95.26;101267.81;4994702;28;20599;-65
2023/01/10 00:53:07;;;;;;;12.18;3.30;;;;;;;4.85;95.79;101260.47;4995130;28;20253;-65
2023/01/10 00:55:34;;;;;;;16.40;4.10;;;;;;;4.79;95.96;101254.97;4994845;28;20026;-65
2023/01/10 00:58:00;;;;;;;12.90;3.58;;;;;;;4.74;95.88;101249.56;4994740;28;20521;-65
2023/01/10 01:00:25;;;;;;;14.77;3.55;;;;;;;4.70;96.06;101252.88;4995012;28;20031;-66
2023/01/10 01:02:50;;;;;;;16.33;4.10;;;;;;;4.68;96.63;101258.91;4994727;28;20022;-65
2023/01/10 01:05:17;;;;;;;15.20;3.55;;;;;;;4.70;96.45;101263.34;4977304;28;20054;-65
2023/01/10 01:07:42;;;;;;;14.07;3.60;;;;;;;4.69;97.20;101266.81;4994498;28;20503;-66
2023/01/10 01:10:27;;;;;;;12.23;3.50;;;;;;;4.70;96.45;101267.69;4977167;28;20030;-65
2023/01/10 01:12:54;;;;;;;16.45;3.58;;;;;;;4.71;97.18;101280.88;4994647;28;20037;-66
2023/01/10 01:15:20;;;;;;;16.75;4.20;;;;;;;4.72;96.96;101279.16;4977329;28;20034;-65
2023/01/10 01:17:46;;;;;;;16.27;3.92;;;;;;;4.74;97.21;101287.94;4994349;28;20492;-66
2023/01/10 01:20:12;;;;;;;16.20;3.60;;;;;;;4.73;97.13;101291.41;4994606;28;20028;-65
2023/01/10 01:22:38;;;;;;;15.35;3.97;;;;;;;4.76;97.08;101302.00;4994327;28;20080;-65
2023/01/10 01:25:04;;;;;;;21.92;3.50;;;;;;;4.80;97.08;101289.91;4994605;28;20042;-66
2023/01/10 01:27:30;;;;;;;14.45;4.20;;;;;;;4.81;96.89;101297.84;4994481;28;20030;-66
2023/01/10 01:29:56;;;;;;;13.60;3.90;;;;;;;4.83;96.99;101313.59;4994368;28;20023;-65
2023/01/10 01:32:21;;;;;;;13.85;3.47;;;;;;;4.87;96.67;101307.66;4976452;28;20056;-65
2023/01/10 01:34:47;;;;;;;17.23;3.78;;;;;;;4.85;96.40;101312.84;4994141;28;20038;-66
2023/01/10 01:37:12;;;;;;;17.23;4.05;;;;;;;4.82;96.60;101312.72;4994109;28;20106;-65
2023/01/10 01:39:38;;;;;;;12.13;4.80;;;;;;;4.83;96.74;101303.13;4994050;28;20033;-65
2023/01/10 01:42:04;;;;;;;16.45;4.80;;;;;;;4.81;96.77;101308.31;4994157;28;20073;-65
2023/01/10 01:44:34;;;;;;;19.63;5.53;;;;;;;4.82;96.25;101319.69;4993822;28;20038;-66
2023/01/10 01:46:59;;;;;;;18.38;6.32;;;;;;;4.85;96.44;101327.66;4993871;28;20066;-66
2023/01/10 01:49:25;;;;;;;16.02;5.80;;;;;;;4.77;96.93;101319.50;4993929;28;20061;-66
2023/01/10 01:52:01;;;;;;;17.25;6.15;;;;;;;4.85;97.81;101328.56;4993779;28;20031;-65
2023/01/10 01:54:28;;;;;;;21.30;6.72;;;;;;;4.89;97.77;101335.72;4993955;28;20030;-66
2023/01/10 01:57:22;;;;;;;20.25;6.65;;;;;;;4.94;97.56;101336.78;4993722;28;20026;-66
2023/01/10 01:59:50;;;;;;;20.25;6.20;;;;;;;4.97;98.29;101342.16;4989787;28;20093;-66
2023/01/10 02:02:24;;;;;;;17.58;6.28;;;;;;;5.00;98.30;101347.50;4993420;28;20019;-66
2023/01/10 02:04:58;;;;;;;17.25;5.72;;;;;;;5.03;97.75;101342.41;4993365;28;20049;-65
2023/01/10 02:07:27;;;;;;;22.02;6.00;;;;;;;5.06;98.22;101340.75;4993995;28;20029;-65
2023/01/10 02:10:06;;;;;;;17.55;5.25;;;;;;;5.07;98.46;101345.16;4993739;28;20018;-66
2023/01/10 02:12:32;;;;;;;17.33;4.93;;;;;;;5.06;98.43;101348.63;4993582;28;20030;-66
2023/01/10 02:14:58;;;;;;;20.70;4.88;;;;;;;5.05;98.71;101349.41;4993605;28;20415;-66
2023/01/10 02:17:24;;;;;;;17.02;4.53;;;;;;;5.05;98.81;101345.06;4993542;28;20532;-66
2023/01/10 02:19:51;;;;;;;12.55;4.30;;;;;;;5.06;98.89;101357.38;4993725;28;20165;-66
2023/01/10 02:22:38;;;;;;;10.88;4.05;;;;;;;5.07;99.76;101350.41;4993548;28;20376;-67
2023/01/10 02:25:37;;;;;;;15.90;4.38;;;;;;;5.12;98.99;101360.22;4993777;28;20058;-66
2023/01/10 02:28:33;;;;;;;14.23;4.03;;;;;;;5.11;99.48;101354.94;4993656;28;20340;-66
2023/01/10 02:31:35;;;;;;;11.27;4.32;;;;;;;5.12;99.17;101357.59;4993227;28;20022;-66
2023/01/10 02:34:06;;;;;;;17.35;4.13;;;;;;;5.13;99.46;101361.09;4993305;28;20042;-66
2023/01/10 02:36:57;;;;;;;16.02;4.10;;;;;;;5.12;99.08;101357.59;4993197;28;20026;-66
2023/01/10 02:39:35;;;;;;;15.27;4.00;;;;;;;5.12;99.10;101360.22;4985203;28;20034;-66
2023/01/10 02:42:12;;;;;;;19.40;3.95;;;;;;;5.10;99.10;101350.53;4993352;28;20030;-66
2023/01/10 02:44:59;;;;;;;14.38;3.95;;;;;;;5.08;99.35;101350.44;4993504;28;20048;-66
2023/01/10 02:47:24;;;;;;;19.95;4.03;;;;;;;5.09;99.01;101353.94;4993290;28;20029;-66
2023/01/10 02:49:50;;;;;;;13.05;3.65;;;;;;;5.10;99.29;101358.38;4993175;28;20030;-66
2023/01/10 02:52:26;;;;;;;13.50;3.65;;;;;;;5.09;99.23;101361.81;4993336;28;20027;-66
2023/01/10 02:54:57;;;;;;;19.55;3.63;;;;;;;5.09;99.61;101367.94;4993167;28;20518;-66
2023/01/10 02:57:34;;;;;;;14.70;3.70;;;;;;;5.07;99.06;101371.34;4993365;28;20034;-66
2023/01/10 03:00:06;;;;;;;17.75;4.45;;;;;;;5.07;99.04;101366.13;4993568;28;20027;-65
2023/01/10 03:02:31;;;;;;;16.67;3.50;;;;;;;5.02;99.04;101376.41;4993211;28;20030;-65
2023/01/10 03:05:15;;;;;;;15.32;3.65;;;;;;;4.97;99.19;101377.94;4993037;28;20022;-66
2023/01/10 03:07:54;;;;;;;17.90;4.10;;;;;;;4.93;99.30;101382.16;4993125;28;20076;-66
2023/01/10 03:10:20;;;;;;;12.02;3.65;;;;;;;4.91;99.11;101385.50;4993185;28;20532;-66
2023/01/10 03:13:00;;;;;;;14.85;3.70;;;;;;;4.85;98.93;101391.41;4993497;28;20116;-66
2023/01/10 03:15:30;;;;;;;16.88;3.50;;;;;;;4.82;99.20;101393.88;4995957;28;20057;-65
2023/01/10 03:18:00;;;;;;;13.95;3.50;;;;;;;4.80;98.95;101407.72;4997020;28;20439;-66
2023/01/10 03:20:30;;;;;;;15.75;3.35;;;;;;;4.74;99.13;101411.88;4996567;28;20030;-66
2023/01/10 03:22:55;;;;;;;10.68;3.47;;;;;;;4.72;99.29;101420.50;4996854;28;20037;-66
2023/01/10 03:25:25;;;;;;;13.95;3.40;;;;;;;4.71;99.19;101430.09;4996872;28;20026;-65
2023/01/10 03:27:59;;;;;;;13.65;3.42;;;;;;;4.65;99.65;101421.94;4996382;28;20037;-66
2023/01/10 03:30:24;;;;;;;14.43;3.20;;;;;;;4.70;100.00;101432.63;4996792;28;20034;-66
2023/01/10 03:32:50;;;;;;;15.88;4.03;;;;;;;4.68;99.54;101427.31;4996307;28;20407;-66
2023/01/10 03:35:16;;;;;;;17.52;3.33;;;;;;;4.69;100.00;101429.09;4996475;28;20026;-66
2023/01/10 03:37:57;;;;;;;14.10;3.90;;;;;;;4.70;100.00;101432.63;4996291;28;20226;-66
2023/01/10 03:40:52;;;;;;;13.15;3.47;;;;;;;4.71;99.96;101435.31;4996269;28;20345;-66
2023/01/10 03:46:48;;;;;;;19.10;3.42;;;;;;;4.76;99.60;101439.03;4993375;28;20429;-65
2023/01/10 03:49:15;;;;;;;20.27;3.85;;;;;;;4.80;99.44;101449.59;4996071;28;20430;-66
2023/01/10 03:51:41;;;;;;;25.42;4.47;;;;;;;4.78;100.00;101442.59;4996093;28;20037;-66
2023/01/10 03:54:07;;;;;;;17.25;3.47;;;;;;;4.83;99.90;101448.03;4995998;28;20030;-66
2023/01/10 03:56:45;;;;;;;17.73;3.70;;;;;;;4.84;99.61;101462.94;4996049;28;20061;-65
2023/01/10 03:59:10;;;;;;;19.33;4.53;;;;;;;4.86;99.96;101462.97;4995939;28;20031;-65
2023/01/10 04:01:36;;;;;;;13.23;3.55;;;;;;;4.89;99.48;101471.88;4995752;28;20033;-66
2023/01/10 04:04:01;;;;;;;15.80;3.42;;;;;;;4.89;99.39;101477.13;4995900;28;20110;-66
2023/01/10 04:06:26;;;;;;;14.05;3.40;;;;;;;4.92;99.68;101473.72;4995600;28;20112;-64
2023/01/10 04:08:52;;;;;;;22.25;4.13;;;;;;;4.90;99.25;101476.28;4995682;28;20030;-66
2023/01/10 04:11:17;;;;;;;20.42;3.42;;;;;;;4.93;99.40;101475.53;4995776;28;20062;-65
2023/01/10 04:13:43;;;;;;;17.95;3.65;;;;;;;4.93;99.39;101480.78;4995622;28;20362;-65
2023/01/10 04:16:08;;;;;;;14.68;3.20;;;;;;;4.91;99.12;101485.03;4995698;28;20054;-66
2023/01/10 04:18:33;;;;;;;15.38;3.38;;;;;;;4.92;98.93;101490.31;4995615;28;20039;-66
2023/01/10 04:20:59;;;;;;;19.27;3.47;;;;;;;4.91;98.74;101488.53;4995574;28;20026;-66
2023/01/10 04:23:24;;;;;;;19.85;3.63;;;;;;;4.89;99.04;101486.69;4995429;28;20037;-66
2023/01/10 04:25:49;;;;;;;19.73;4.13;;;;;;;4.88;98.90;101492.75;4994847;28;20361;-66
2023/01/10 04:28:15;;;;;;;13.82;2.90;;;;;;;4.85;99.10;101501.38;4995252;28;20034;-65
2023/01/10 04:30:40;;;;;;;17.60;3.72;;;;;;;4.85;99.18;101504.00;4995337;28;20030;-66
2023/01/10 04:33:06;;;;;;;17.55;3.67;;;;;;;4.82;98.49;101502.94;4995484;28;20163;-65
2023/01/10 04:35:31;;;;;;;17.48;3.50;;;;;;;4.81;98.67;101496.81;4977604;28;20126;-65
2023/01/10 04:37:56;;;;;;;12.15;3.47;;;;;;;4.83;99.38;101502.13;4995297;28;20480;-66
2023/01/10 04:40:22;;;;;;;17.88;3.35;;;;;;;4.77;98.55;101487.94;4995243;28;20105;-66
2023/01/10 04:42:47;;;;;;;24.13;4.20;;;;;;;4.82;98.40;101489.88;4995337;28;20026;-66
2023/01/10 04:45:16;;;;;;;14.60;3.38;;;;;;;4.78;98.64;101481.84;4995074;28;20033;-66
2023/01/10 04:47:42;;;;;;;16.25;3.53;;;;;;;4.77;98.78;101489.66;4995163;28;20080;-66
2023/01/10 04:50:08;;;;;;;26.55;3.67;;;;;;;4.72;98.76;101491.19;4995004;28;20031;-65
2023/01/10 04:52:33;;;;;;;21.02;3.63;;;;;;;4.69;99.05;101499.78;4994956;28;20069;-66
2023/01/10 04:54:58;;;;;;;18.13;3.55;;;;;;;4.65;98.50;101497.84;4994879;28;20023;-66
2023/01/10 04:57:24;;;;;;;20.75;3.80;;;;;;;4.66;98.62;101514.44;4994929;28;20050;-65
2023/01/10 04:59:49;;;;;;;17.48;3.72;;;;;;;4.65;99.28;101520.53;4977399;28;20081;-65
2023/01/10 05:02:15;;;;;;;18.45;3.95;;;;;;;4.65;98.99;101517.91;4994787;28;20040;-65
2023/01/10 05:04:40;;;;;;;15.40;3.50;;;;;;;4.62;98.95;101510.78;4994559;28;20085;-66
2023/01/10 05:07:06;;;;;;;20.10;3.33;;;;;;;4.65;99.44;101504.81;4994683;28;20503;-65
2023/01/10 05:09:31;;;;;;;16.40;3.15;;;;;;;4.62;98.91;101502.94;4994609;28;20142;-65
2023/01/10 05:11:56;;;;;;;17.88;3.42;;;;;;;4.61;98.78;101506.38;4994596;28;20543;-65
2023/01/10 05:14:22;;;;;;;18.10;3.33;;;;;;;4.61;99.10;101516.84;4994579;28;20062;-65
2023/01/10 05:16:47;;;;;;;18.75;3.38;;;;;;;4.61;99.03;101519.47;4994666;28;20034;-66
2023/01/10 05:19:12;;;;;;;24.90;4.50;;;;;;;4.60;98.89;101533.41;4994659;28;20058;-66
2023/01/10 05:21:38;;;;;;;22.13;3.70;;;;;;;4.61;99.26;101539.53;4994342;28;20033;-66
2023/01/10 05:24:03;;;;;;;23.65;3.95;;;;;;;4.61;98.79;101548.28;4976739;28;20101;-65
2023/01/10 05:26:29;;;;;;;22.27;3.45;;;;;;;4.63;98.95;101554.50;4994343;28;20014;-65
2023/01/10 05:28:54;;;;;;;26.77;3.83;;;;;;;4.64;99.22;101558.88;4994242;28;20480;-66
2023/01/10 05:31:20;;;;;;;18.30;3.13;;;;;;;4.66;98.96;101552.00;4993947;28;20078;-66
2023/01/10 05:33:47;;;;;;;19.65;3.65;;;;;;;4.68;99.51;101559.94;4994361;28;20042;-65
2023/01/10 05:36:12;;;;;;;21.85;3.50;;;;;;;4.70;99.21;101555.66;4993953;28;20409;-65
2023/01/10 05:38:37;;;;;;;15.43;3.47;;;;;;;4.72;99.99;101565.38;4993139;28;20045;-66
2023/01/10 05:41:03;;;;;;;13.88;3.25;;;;;;;4.74;99.83;101568.94;4993901;28;20026;-65
2023/01/10 05:43:28;;;;;;;20.88;3.58;;;;;;;4.75;99.24;101564.59;4976727;28;20108;-65
2023/01/10 05:45:54;;;;;;;12.02;3.20;;;;;;;4.77;99.13;101566.47;4993884;28;20022;-65
2023/01/10 05:48:19;;;;;;;16.88;3.70;;;;;;;4.79;99.35;101571.78;4994156;28;20483;-66
2023/01/10 05:50:45;;;;;;;21.58;4.07;;;;;;;4.76;99.29;101579.50;4993826;28;20520;-66
2023/01/10 05:53:11;;;;;;;24.67;3.85;;;;;;;4.75;99.68;101568.16;4993832;28;20476;-66
2023/01/10 05:55:36;;;;;;;18.30;3.47;;;;;;;4.79;99.24;101579.63;4993808;28;20028;-66
2023/01/10 05:58:02;;;;;;;23.75;3.60;;;;;;;4.82;99.03;101579.78;4993653;28;20031;-65
2023/01/10 06:00:27;;;;;;;21.95;3.70;;;;;;;4.86;99.21;101578.19;4993760;28;20031;-66
2023/01/10 06:02:54;;;;;;;18.42;3.80;;;;;;;4.86;98.93;101588.66;4993743;28;20026;-66
2023/01/10 06:05:20;;;;;;;24.77;3.65;;;;;;;4.90;99.32;101595.84;4993498;28;20482;-65
2023/01/10 06:07:45;;;;;;;21.65;4.18;;;;;;;4.92;98.54;101599.41;4993645;28;20062;-65
2023/01/10 06:10:10;;;;;;;17.55;3.33;;;;;;;4.93;98.64;101596.00;4993641;28;20027;-65
2023/01/10 06:12:38;;;;;;;22.35;3.75;;;;;;;4.92;98.63;101597.69;4993687;28;20028;-65
2023/01/10 06:15:05;;;;;;;25.55;4.50;;;;;;;4.94;98.81;101592.53;4993922;28;20101;-66
2023/01/10 06:17:30;;;;;;;15.98;3.63;;;;;;;4.93;98.30;101582.91;4993579;28;20033;-66
2023/01/10 06:19:56;;;;;;;23.00;4.18;;;;;;;4.93;98.67;101596.00;4993545;28;20022;-66
2023/01/10 06:22:21;;;;;;;23.70;3.85;;;;;;;4.93;98.29;101596.88;4993545;28;20022;-65
2023/01/10 06:24:47;;;;;;;27.95;5.28;;;;;;;4.95;98.04;101599.56;4993504;28;20026;-66
2023/01/10 06:27:12;;;;;;;20.52;3.60;;;;;;;4.87;98.20;101586.13;4993351;28;20522;-66
2023/01/10 06:29:37;;;;;;;27.02;4.28;;;;;;;4.97;97.76;101608.41;4993247;28;20043;-65
2023/01/10 06:32:03;;;;;;;17.88;2.97;;;;;;;4.91;98.04;101605.47;4993315;28;20042;-65
2023/01/10 06:34:28;;;;;;;23.38;3.97;;;;;;;4.92;98.38;101605.53;4993353;28;20031;-65
2023/01/10 06:36:53;;;;;;;21.83;3.78;;;;;;;4.93;97.56;101604.75;4993187;28;20465;-65
2023/01/10 06:39:19;;;;;;;21.27;3.92;;;;;;;4.94;97.78;101609.16;4993327;28;20092;-66
2023/01/10 06:41:44;;;;;;;19.23;4.55;;;;;;;4.91;97.70;101611.63;5011001;28;20022;-65
2023/01/10 06:44:09;;;;;;;23.25;3.85;;;;;;;4.90;97.70;101612.44;5013007;28;20024;-65
2023/01/10 06:46:35;;;;;;;21.35;4.35;;;;;;;4.85;97.60;101606.09;5013273;28;20026;-65
2023/01/10 06:49:00;;;;;;;20.50;3.70;;;;;;;4.87;97.56;101619.25;5013697;28;20538;-66
2023/01/10 06:51:26;;;;;;;21.20;3.95;;;;;;;4.78;97.51;101607.53;5017087;28;20026;-65
2023/01/10 06:53:51;;;;;;;18.20;3.35;;;;;;;4.83;97.11;101619.94;5016718;28;20030;-66
2023/01/10 06:56:17;;;;;;;21.05;4.30;;;;;;;4.77;96.60;101631.03;5016785;28;20053;-66
2023/01/10 06:58:42;;;;;;;21.77;3.50;;;;;;;4.75;96.68;101630.06;4999166;28;20045;-66
2023/01/10 07:01:16;;;;;;;21.20;3.90;;;;;;;4.71;96.77;101635.97;5016707;28;20113;-65
2023/01/10 07:03:41;;;;;;;27.55;3.58;;;;;;;4.69;96.28;101637.63;5016506;28;20061;-65
2023/01/10 07:06:10;;;;;;;13.25;3.50;;;;;;;4.64;97.17;101652.22;5016437;28;20041;-65
2023/01/10 07:08:38;;;;;;;17.52;3.30;;;;;;;4.62;96.61;101644.28;5016926;28;20036;-65
2023/01/10 07:11:04;;;;;;;19.75;3.63;;;;;;;4.55;96.74;101655.31;5016727;28;20030;-65
2023/01/10 07:13:29;;;;;;;25.88;3.75;;;;;;;4.55;96.77;101678.84;5016394;28;20032;-66
2023/01/10 07:16:02;;;;;;;25.17;3.50;;;;;;;4.51;97.39;101671.69;5016314;28;20022;-65
2023/01/10 07:18:28;;;;;;;17.35;3.10;;;;;;;4.48;96.85;101675.03;5016301;28;20065;-65
2023/01/10 07:20:54;;;;;;;19.67;4.00;;;;;;;4.47;96.96;101675.88;5016651;28;20061;-65
2023/01/10 07:23:19;;;;;;;21.60;4.10;;;;;;;4.43;97.21;101676.53;5016470;28;20058;-65
2023/01/10 07:25:45;;;;;;;18.65;3.60;;;;;;;4.43;96.87;101688.72;5016271;28;20391;-66
2023/01/10 07:28:10;;;;;;;21.38;3.55;;;;;;;4.41;97.72;101685.13;5016061;28;20022;-65
2023/01/10 07:30:36;;;;;;;22.63;3.85;;;;;;;4.42;96.90;101689.56;4998543;28;20056;-66
2023/01/10 07:33:02;;;;;;;15.57;3.53;;;;;;;4.40;97.79;101705.16;5015962;28;20046;-65
2023/01/10 07:35:28;;;;;;;20.75;4.07;;;;;;;4.39;97.81;101708.59;5015648;28;20116;-65
2023/01/10 07:37:57;;;;;;;31.75;4.32;;;;;;;4.44;97.08;101709.72;5015922;28;20487;-65
2023/01/10 07:40:23;;;;;;;17.08;3.40;;;;;;;4.47;97.20;101719.47;5015931;28;20036;-65
2023/01/10 07:42:48;;;;;;;17.30;3.53;;;;;;;4.44;97.31;101714.06;5016008;28;20113;-66
2023/01/10 07:45:14;;;;;;;29.70;3.90;;;;;;;4.45;97.90;101723.69;5015674;28;20086;-65
2023/01/10 07:47:39;;;;;;;17.00;3.72;;;;;;;4.42;98.02;101728.81;5015803;28;20080;-66
2023/01/10 07:50:05;;;;;;;18.58;4.40;;;;;;;4.43;98.20;101730.59;5015640;28;20068;-66
2023/01/10 07:52:32;;;;;;;21.45;4.38;;;;;;;4.41;97.44;101733.16;4997973;28;20452;-66
2023/01/10 07:54:57;;;;;;;22.10;3.97;;;;;;;4.44;97.77;101733.28;5015562;28;20057;-66
2023/01/10 07:57:23;;;;;;;21.42;3.75;;;;;;;4.41;97.67;101735.75;5015795;28;20057;-66
2023/01/10 07:59:48;;;;;;;20.17;4.07;;;;;;;4.40;98.22;101735.66;5015552;28;20480;-65
2023/01/10 08:02:13;;;;;;;20.77;4.25;;;;;;;4.41;97.64;101742.69;5014533;28;20065;-65
2023/01/10 08:04:39;;;;;;;21.25;3.88;;;;;;;4.43;97.27;101741.06;5015540;28;20030;-65
2023/01/10 08:07:04;;;;;;;19.55;3.55;;;;;;;4.44;97.55;101740.22;5015425;28;20029;-66
2023/01/10 08:09:29;;;;;;;20.20;3.63;;;;;;;4.44;97.15;101743.75;5015254;28;20033;-66
2023/01/10 08:11:55;;;;;;;19.67;4.07;;;;;;;4.41;98.15;101734.84;4997718;28;20080;-65
2023/01/10 08:14:20;;;;;;;23.25;3.80;;;;;;;4.45;97.98;101742.94;5015175;28;20022;-65
2023/01/10 08:16:45;;;;;;;20.80;3.75;;;;;;;4.47;97.29;101741.28;5015285;28;20030;-65
2023/01/10 08:19:15;;;;;;;26.95;4.40;;;;;;;4.47;97.60;101740.41;5015216;28;20475;-66
2023/01/10 08:21:41;;;;;;;19.52;3.85;;;;;;;4.51;96.87;101734.50;5015429;28;20042;-65
2023/01/10 08:24:06;;;;;;;24.95;4.40;;;;;;;4.53;96.59;101741.56;5015150;28;20480;-65
2023/01/10 08:26:31;;;;;;;15.05;3.45;;;;;;;4.60;96.41;101742.78;5015278;28;20026;-65
2023/01/10 08:28:57;;;;;;;21.52;3.35;;;;;;;4.61;96.06;101735.84;5014944;28;20383;-65
2023/01/10 08:31:22;;;;;;;24.75;4.68;;;;;;;4.66;96.29;101734.34;5014747;28;20049;-66
2023/01/10 08:33:49;;;;;;;20.58;3.60;;;;;;;4.67;95.80;101738.78;5014889;28;20112;-65
2023/01/10 08:36:16;;;;;;;17.73;4.00;;;;;;;4.72;95.86;101747.75;4997112;28;20121;-65
2023/01/10 08:38:41;;;;;;;21.05;3.67;;;;;;;4.77;95.96;101746.25;5014991;28;20022;-65
2023/01/10 08:41:07;;;;;;;15.95;3.85;;;;;;;4.87;95.15;101740.59;5014738;28;20486;-65
2023/01/10 08:43:32;;;;;;;21.35;3.90;;;;;;;5.02;94.74;101743.09;5014743;28;20018;-65
2023/01/10 08:45:58;;;;;;;17.15;3.55;;;;;;;5.12;94.82;101741.78;5014660;28;20462;-66
2023/01/10 08:48:23;;;;;;;20.27;4.10;;;;;;;5.19;93.93;101730.78;5014767;28;20030;-65
2023/01/10 08:50:48;;;;;;;23.42;4.07;;;;;;;5.20;94.20;101741.31;5014658;28;20483;-65
2023/01/10 08:53:14;;;;;;;23.17;4.15;;;;;;;5.12;93.32;101740.06;5014803;28;20049;-66
2023/01/10 08:55:39;;;;;;;13.48;3.47;;;;;;;5.11;92.97;101735.66;5014442;28;20105;-65
2023/01/10 08:58:05;;;;;;;22.58;4.13;;;;;;;5.16;93.13;101733.25;5014264;28;20569;-65
2023/01/10 09:00:30;;;;;;;18.95;3.70;;;;;;;5.16;93.08;101734.13;5014173;28;20022;-65
2023/01/10 09:02:56;;;;;;;18.88;3.88;;;;;;;5.20;93.40;101738.69;4996751;28;20025;-65
2023/01/10 09:05:21;;;;;;;20.90;3.55;;;;;;;5.20;92.84;101732.56;5014281;28;20077;-65
2023/01/10 09:07:47;;;;;;;17.95;3.17;;;;;;;5.20;93.04;101720.34;5014090;28;20028;-66
2023/01/10 09:10:13;;;;;;;24.02;3.90;;;;;;;5.21;92.63;101731.72;5014274;28;20104;-65
2023/01/10 09:12:53;;;;;;;16.05;3.38;;;;;;;5.23;92.96;101737.97;5014159;28;20533;-65
2023/01/10 09:15:23;;;;;;;21.38;4.47;;;;;;;5.21;92.74;101721.25;5014214;28;20030;-65
2023/01/10 09:17:49;;;;;;;24.90;3.72;;;;;;;5.23;92.92;101717.00;5014386;28;20071;-65
2023/01/10 09:20:15;;;;;;;18.58;3.85;;;;;;;5.26;92.91;101717.13;5014100;28;20033;-66
2023/01/10 09:22:40;;;;;;;16.92;4.07;;;;;;;5.26;92.91;101728.50;5014281;28;20030;-65
2023/01/10 09:25:06;;;;;;;21.90;3.95;;;;;;;5.24;92.63;101724.91;5013980;28;20501;-65
2023/01/10 09:27:32;;;;;;;17.15;3.47;;;;;;;5.26;92.56;101714.50;5013945;28;20048;-65
2023/01/10 09:29:57;;;;;;;23.90;3.92;;;;;;;5.24;93.32;101718.78;5013904;28;20475;-66
2023/01/10 09:32:23;;;;;;;21.13;3.85;;;;;;;5.25;93.25;101728.44;5013606;28;20480;-66
2023/01/10 09:34:49;;;;;;;20.88;4.22;;;;;;;5.24;92.54;101732.78;5013930;28;20391;-66
2023/01/10 09:37:14;;;;;;;22.30;3.83;;;;;;;5.25;93.18;101723.19;5013562;28;20076;-66
2023/01/10 09:39:39;;;;;;;16.23;3.30;;;;;;;5.18;93.34;101724.66;5013731;28;20094;-66
2023/01/10 09:42:22;;;;;;;24.52;3.83;;;;;;;5.17;93.42;101719.31;5013763;28;20037;-66
2023/01/10 09:45:20;;;;;;;17.15;3.60;;;;;;;5.16;93.64;101725.38;5013804;28;20022;-65
2023/01/10 09:48:02;;;;;;;27.85;4.30;;;;;;;5.19;93.78;101718.56;5013945;28;20360;-66
2023/01/10 09:50:42;;;;;;;29.42;3.95;;;;;;;5.21;93.52;101708.16;5013565;28;20033;-66
2023/01/10 09:53:21;;;;;;;24.17;3.80;;;;;;;5.23;93.29;101715.28;5013558;28;20029;-65
2023/01/10 09:55:53;;;;;;;24.65;4.65;;;;;;;5.30;93.28;101713.81;5013609;28;20034;-66
2023/01/10 09:58:20;;;;;;;18.13;3.30;;;;;;;5.30;93.42;101715.53;5013722;28;20060;-66
2023/01/10 10:00:51;;;;;;;21.40;4.05;;;;;;;5.36;92.65;101721.97;5013404;28;20490;-66
2023/01/10 10:03:20;;;;;;;12.68;2.85;;;;;;;5.37;93.12;101718.53;5013707;28;20030;-66
2023/01/10 10:05:45;;;;;;;20.48;3.72;;;;;;;5.39;92.87;101714.22;5013202;28;20022;-66
2023/01/10 10:08:16;;;;;;;20.73;3.42;;;;;;;5.47;92.97;101725.97;5012930;28;20382;-66
2023/01/10 10:10:54;;;;;;;17.48;3.17;;;;;;;5.51;92.80;101727.00;5013010;28;20026;-66
2023/01/10 10:13:32;;;;;;;22.92;4.35;;;;;;;5.59;93.20;101728.25;5013398;28;20029;-66
2023/01/10 10:16:01;;;;;;;16.88;3.38;;;;;;;5.62;92.02;101714.41;5013192;28;20535;-66
2023/01/10 10:19:04;;;;;;;19.30;3.65;;;;;;;5.68;92.43;101714.66;5013064;28;20041;-66
2023/01/10 10:21:41;;;;;;;22.42;3.40;;;;;;;5.72;92.34;101701.75;5013130;28;20487;-66
2023/01/10 10:24:25;;;;;;;18.02;3.70;;;;;;;5.76;91.47;101697.53;5012565;28;20042;-65
2023/01/10 10:27:08;;;;;;;16.73;3.08;;;;;;;5.81;92.02;101696.00;5013136;28;20032;-66
2023/01/10 10:29:45;;;;;;;;;;;;;;;5.85;91.33;101691.78;5013616;28;20177;-66
2023/01/10 10:32:38;;;;;;;20.17;4.68;;;;;;;5.86;91.51;101697.09;5012635;28;19992;-66
2023/01/10 10:35:37;;;;;;;21.88;3.55;;;;;;;5.88;91.77;101698.06;5012996;28;20049;-66
2023/01/10 10:38:11;;;;;;;14.07;3.05;;;;;;;5.90;91.12;101683.28;4996382;28;20081;-66
2023/01/10 10:40:41;;;;;;;17.63;3.17;;;;;;;5.92;91.46;101679.06;4993410;28;20033;-66
2023/01/10 10:43:37;;;;;;;20.67;3.63;;;;;;;5.94;90.94;101672.13;4993746;28;20068;-65
2023/01/10 10:46:14;;;;;;;24.85;3.83;;;;;;;5.96;91.66;101665.22;4985458;28;20544;-66
2023/01/10 10:48:53;;;;;;;16.38;3.50;;;;;;;5.97;91.49;101661.78;4993336;28;20037;-66
2023/01/10 10:51:46;;;;;;;21.08;4.15;;;;;;;6.01;91.04;101652.31;4993305;28;20037;-66
2023/01/10 10:54:13;;;;;;;16.95;3.47;;;;;;;6.02;91.02;101649.75;4993601;28;20030;-65
2023/01/10 10:56:39;;;;;;;22.58;3.90;;;;;;;6.01;91.06;101640.09;4993153;28;20034;-66
2023/01/10 10:59:05;;;;;;;15.70;3.25;;;;;;;6.07;90.57;101649.94;4975790;28;20022;-66
2023/01/10 11:01:30;;;;;;;16.63;3.55;;;;;;;6.10;90.63;101651.81;4993448;28;20063;-66
2023/01/10 11:04:00;;;;;;;18.85;3.45;;;;;;;6.15;91.24;101650.25;4993300;28;20545;-66
2023/01/10 11:06:29;;;;;;;22.63;4.13;;;;;;;6.13;90.81;101639.72;4993108;28;20026;-66
2023/01/10 11:08:59;;;;;;;25.15;3.80;;;;;;;6.20;90.41;101648.72;4993081;28;20034;-66
2023/01/10 11:11:33;;;;;;;20.92;3.63;;;;;;;6.23;90.87;101639.25;4993415;28;20030;-66
2023/01/10 11:14:03;;;;;;;20.20;4.07;;;;;;;6.26;90.54;101636.75;4993133;28;20034;-66
2023/01/10 11:16:35;;;;;;;20.48;3.83;;;;;;;6.27;90.15;101629.78;4993172;28;20084;-66
2023/01/10 11:19:21;;;;;;;18.70;3.45;;;;;;;6.31;89.68;101623.81;4993301;28;20027;-66
2023/01/10 11:22:02;;;;;;;22.63;3.58;;;;;;;6.33;89.87;101618.63;4991800;28;20443;-65
2023/01/10 11:24:53;;;;;;;17.98;4.10;;;;;;;6.37;90.35;101615.28;4993238;28;20023;-65
2023/01/10 11:27:22;;;;;;;21.45;4.18;;;;;;;6.40;89.67;101618.03;4991000;28;20046;-66
2023/01/10 11:30:08;;;;;;;17.63;4.55;;;;;;;6.41;89.81;101620.72;4992169;28;20073;-66
2023/01/10 11:32:39;;;;;;;20.02;3.90;;;;;;;6.44;89.72;101614.69;4991297;28;20129;-65
2023/01/10 11:35:30;;;;;;;21.80;4.28;;;;;;;6.49;89.93;101610.53;4991545;28;20027;-66
2023/01/10 11:38:05;;;;;;;21.58;3.83;;;;;;;6.50;88.34;101610.56;4981464;28;20034;-65
2023/01/10 11:40:37;;;;;;;22.58;4.28;;;;;;;6.49;88.51;101610.53;4995381;28;20029;-65